createdAt,value
2019-03-18T00:00:04.747Z,2.23
2019-03-18T00:02:31.048Z,2.53
2019-03-18T00:04:57.326Z,2.60
2019-03-18T00:07:23.592Z,2.80
2019-03-18T00:09:49.874Z,2.50
2019-03-18T00:12:17.243Z,2.43
2019-03-18T00:14:43.518Z,2.67
2019-03-18T00:17:09.785Z,2.27
2019-03-18T00:19:36.035Z,2.20
2019-03-18T00:22:02.331Z,2.30
2019-03-18T00:24:28.747Z,2.53
2019-03-18T00:26:55.062Z,2.30
2019-03-18T00:29:24.478Z,2.40
2019-03-18T00:31:50.800Z,2.50
2019-03-18T00:34:17.040Z,2.80
2019-03-18T00:36:43.297Z,2.33
2019-03-18T00:39:09.584Z,2.70
2019-03-18T00:41:36.936Z,2.83
2019-03-18T00:44:03.198Z,2.77
2019-03-18T00:46:32.523Z,2.73
2019-03-18T00:48:58.800Z,2.33
2019-03-18T00:51:25.059Z,2.40
2019-03-18T00:53:51.326Z,2.50
2019-03-18T00:56:17.606Z,2.47
2019-03-18T00:58:43.899Z,2.20
2019-03-18T01:01:10.264Z,2.77
2019-03-18T01:03:36.522Z,2.70
2019-03-18T01:06:05.964Z,2.30
2019-03-18T01:08:32.222Z,2.73
2019-03-18T01:10:58.473Z,2.60
2019-03-18T01:13:24.867Z,2.77
2019-03-18T01:15:51.124Z,3.00
2019-03-18T01:18:19.402Z,2.97
2019-03-18T01:20:45.679Z,3.27
2019-03-18T01:23:11.960Z,2.90
2019-03-18T01:25:38.271Z,2.73
2019-03-18T01:28:04.549Z,2.67
2019-03-18T01:30:30.842Z,2.50
2019-03-18T01:32:57.096Z,2.80
2019-03-18T01:35:23.393Z,2.73
2019-03-18T01:37:49.711Z,3.60
2019-03-18T01:40:15.962Z,3.20
2019-03-18T01:42:42.268Z,3.10
2019-03-18T01:45:09.335Z,3.30
2019-03-18T01:47:35.597Z,3.50
2019-03-18T01:50:02.073Z,3.50
2019-03-18T01:52:28.290Z,3.77
2019-03-18T01:54:54.591Z,3.60
2019-03-18T01:57:24.284Z,3.47
2019-03-18T01:59:50.561Z,3.73
2019-03-18T02:02:16.903Z,3.90
2019-03-18T02:04:43.149Z,3.80
2019-03-18T02:07:09.515Z,3.60
2019-03-18T02:09:38.780Z,3.83
2019-03-18T02:12:05.086Z,4.10
2019-03-18T02:14:31.326Z,3.90
2019-03-18T02:16:57.610Z,4.13
2019-03-18T02:19:26.955Z,4.10
2019-03-18T02:21:53.206Z,4.23
2019-03-18T02:24:19.478Z,3.50
2019-03-18T02:26:45.831Z,4.27
2019-03-18T02:29:12.085Z,4.23
2019-03-18T02:31:38.354Z,4.37
2019-03-18T02:34:04.747Z,3.73
2019-03-18T02:36:31.042Z,4.30
2019-03-18T02:38:57.294Z,4.00
2019-03-18T02:41:23.683Z,4.50
2019-03-18T02:43:53.098Z,4.47
2019-03-18T02:46:19.398Z,5.00
2019-03-18T02:48:48.894Z,5.03
2019-03-18T02:51:15.170Z,4.60
2019-03-18T02:53:47.872Z,4.77
2019-03-18T02:56:14.166Z,4.30
2019-03-18T02:58:40.423Z,4.67
2019-03-18T03:01:06.725Z,5.30
2019-03-18T03:03:39.197Z,5.13
2019-03-18T03:06:05.485Z,5.50
2019-03-18T03:08:34.983Z,5.47
2019-03-18T03:11:01.264Z,4.73
2019-03-18T03:13:27.499Z,5.33
2019-03-18T03:15:53.781Z,5.20
2019-03-18T03:18:20.015Z,5.37
2019-03-18T03:20:46.294Z,6.10
2019-03-18T03:23:12.585Z,6.50
2019-03-18T03:25:41.893Z,6.13
2019-03-18T03:28:08.165Z,6.63
2019-03-18T03:30:34.526Z,5.93
2019-03-18T03:33:04.049Z,6.47
2019-03-18T03:35:30.305Z,6.50
2019-03-18T03:37:56.574Z,5.50
2019-03-18T03:40:22.822Z,7.23
2019-03-18T03:42:49.067Z,6.03
2019-03-18T03:45:15.380Z,6.57
2019-03-18T03:47:41.636Z,7.17
2019-03-18T03:50:09.726Z,6.87
2019-03-18T03:52:36.049Z,6.37
2019-03-18T03:55:02.819Z,6.17
2019-03-18T03:57:29.086Z,5.97
2019-03-18T03:59:55.337Z,5.93
2019-03-18T04:02:21.682Z,6.40
2019-03-18T04:04:47.908Z,5.93
2019-03-18T04:07:14.171Z,5.70
2019-03-18T04:09:40.481Z,6.30
2019-03-18T04:12:06.754Z,5.83
2019-03-18T04:14:33.017Z,6.10
2019-03-18T04:17:03.017Z,6.20
2019-03-18T04:19:29.465Z,6.07
2019-03-18T04:21:55.767Z,6.67
2019-03-18T04:24:22.064Z,6.27
2019-03-18T04:26:48.320Z,5.97
2019-03-18T04:29:14.560Z,6.27
2019-03-18T04:31:40.832Z,6.47
2019-03-18T04:34:07.115Z,6.50
2019-03-18T04:36:36.593Z,6.13
2019-03-18T04:39:04.762Z,6.77
2019-03-18T04:41:31.048Z,7.00
2019-03-18T04:43:57.303Z,6.90
2019-03-18T04:46:23.575Z,6.50
2019-03-18T04:48:49.830Z,8.33
2019-03-18T04:51:16.119Z,8.77
2019-03-18T04:53:42.375Z,8.97
2019-03-18T04:56:08.628Z,9.03
2019-03-18T04:58:34.933Z,9.20
2019-03-18T05:01:01.229Z,10.47
2019-03-18T05:03:27.490Z,9.90
2019-03-18T05:05:53.764Z,11.07
2019-03-18T05:08:20.046Z,9.97
2019-03-18T05:10:46.320Z,11.93
2019-03-18T05:13:12.550Z,11.10
2019-03-18T05:15:38.884Z,10.60
2019-03-18T05:18:05.189Z,11.07
2019-03-18T05:20:31.411Z,11.90
2019-03-18T05:22:57.721Z,11.07
2019-03-18T05:25:27.054Z,11.00
2019-03-18T05:27:53.313Z,12.57
2019-03-18T05:30:26.712Z,12.53
2019-03-18T05:32:52.894Z,12.90
2019-03-18T05:35:23.232Z,12.80
2019-03-18T05:38:11.266Z,12.93
2019-03-18T05:40:43.711Z,14.00
2019-03-18T05:43:13.106Z,14.50
2019-03-18T05:45:42.591Z,16.53
2019-03-18T05:48:10.895Z,17.67
2019-03-18T05:50:37.286Z,16.80
2019-03-18T05:53:06.674Z,15.87
2019-03-18T05:55:36.575Z,16.97
2019-03-18T05:58:12.409Z,15.47
2019-03-18T06:00:41.825Z,16.00
2019-03-18T06:03:13.932Z,16.27
2019-03-18T06:05:40.257Z,13.93
2019-03-18T06:08:11.601Z,16.37
2019-03-18T06:10:59.481Z,16.70
2019-03-18T06:13:43.047Z,14.33
2019-03-18T06:16:12.411Z,15.47
2019-03-18T06:18:38.768Z,15.80
2019-03-18T06:21:06.063Z,16.73
2019-03-18T06:23:33.374Z,16.40
2019-03-18T06:26:05.730Z,14.40
2019-03-18T06:28:32.107Z,12.83
2019-03-18T06:31:01.507Z,11.13
2019-03-18T06:33:27.792Z,11.10
2019-03-18T06:35:56.310Z,10.63
2019-03-18T06:38:25.590Z,10.47
2019-03-18T06:40:51.859Z,10.00
2019-03-18T06:43:21.164Z,10.27
2019-03-18T06:45:50.653Z,10.23
2019-03-18T06:48:43.771Z,9.10
2019-03-18T06:51:21.614Z,9.43
2019-03-18T06:53:51.173Z,8.97
2019-03-18T06:56:23.451Z,9.07
2019-03-18T06:58:52.964Z,8.67
2019-03-18T07:01:47.076Z,9.07
2019-03-18T07:04:22.734Z,9.57
2019-03-18T07:06:49.040Z,9.80
2019-03-18T07:09:18.327Z,9.73
2019-03-18T07:11:45.680Z,9.43
2019-03-18T07:14:11.935Z,9.17
2019-03-18T07:16:44.371Z,8.40
2019-03-18T07:19:10.663Z,6.87
2019-03-18T07:21:39.983Z,6.47
2019-03-18T07:24:12.254Z,5.42
2019-03-18T07:26:38.607Z,5.90
2019-03-18T07:29:07.983Z,5.45
2019-03-18T07:31:43.698Z,5.08
2019-03-18T07:34:09.939Z,5.37
2019-03-18T07:36:36.206Z,5.50
2019-03-18T07:39:08.705Z,5.50
2019-03-18T07:41:37.043Z,5.58
2019-03-18T07:44:08.564Z,5.60
2019-03-18T07:46:34.959Z,5.25
2019-03-18T07:49:04.368Z,6.22
2019-03-18T07:51:30.652Z,5.85
2019-03-18T07:53:56.919Z,5.35
2019-03-18T07:56:23.198Z,5.22
2019-03-18T07:58:49.486Z,5.45
2019-03-18T08:01:18.862Z,5.58
2019-03-18T08:03:45.182Z,5.50
2019-03-18T08:06:11.473Z,5.15
2019-03-18T08:08:37.833Z,5.30
2019-03-18T08:11:04.197Z,5.33
2019-03-18T08:13:32.468Z,5.95
2019-03-18T08:16:04.522Z,6.45
2019-03-18T08:18:42.488Z,6.00
2019-03-18T08:20:58.933Z,7.37
2019-03-18T08:23:25.198Z,8.33
2019-03-18T08:25:51.457Z,7.78
2019-03-18T08:28:17.726Z,7.90
2019-03-18T08:30:47.288Z,4.60
2019-03-18T08:33:16.651Z,5.60
2019-03-18T08:35:42.910Z,4.70
2019-03-18T08:38:09.164Z,4.70
2019-03-18T08:40:38.479Z,4.90
2019-03-18T08:43:04.746Z,4.22
2019-03-18T08:45:31.097Z,4.42
2019-03-18T08:47:57.355Z,3.77
2019-03-18T08:50:23.618Z,3.95
2019-03-18T08:52:49.894Z,4.05
2019-03-18T08:55:17.141Z,4.60
2019-03-18T08:57:46.491Z,3.67
2019-03-18T09:00:13.985Z,4.85
2019-03-18T09:02:40.226Z,3.90
2019-03-18T09:05:07.591Z,4.83
2019-03-18T09:07:33.892Z,4.47
2019-03-18T09:10:00.179Z,4.87
2019-03-18T09:12:26.510Z,4.60
2019-03-18T09:14:55.394Z,6.30
2019-03-18T09:17:25.387Z,5.03
2019-03-18T09:19:51.642Z,5.37
2019-03-18T09:22:17.898Z,4.12
2019-03-18T09:24:44.182Z,4.80
2019-03-18T09:27:10.426Z,4.15
2019-03-18T09:29:42.526Z,3.70
2019-03-18T09:32:12.095Z,4.20
2019-03-18T09:34:48.399Z,3.85
2019-03-18T09:37:14.697Z,3.47
2019-03-18T09:39:40.965Z,3.65
2019-03-18T09:42:10.417Z,3.65
2019-03-18T09:44:37.670Z,3.72
2019-03-18T09:47:13.475Z,3.67
2019-03-18T09:49:41.718Z,4.10
2019-03-18T09:52:08.058Z,3.87
2019-03-18T09:54:34.329Z,4.15
2019-03-18T09:57:26.397Z,4.10
2019-03-18T09:59:50.718Z,3.42
2019-03-18T10:02:30.434Z,3.25
2019-03-18T10:04:56.890Z,2.85
2019-03-18T10:07:29.311Z,2.20
2019-03-18T10:10:06.382Z,3.17
2019-03-18T10:12:38.782Z,2.90
2019-03-18T10:15:19.635Z,3.50
2019-03-18T10:17:48.045Z,3.75
2019-03-18T10:20:16.429Z,3.25
2019-03-18T10:22:43.407Z,3.35
2019-03-18T10:25:13.003Z,3.55
2019-03-18T10:27:45.117Z,3.27
2019-03-18T10:33:52.745Z,3.30
2019-03-18T10:36:26.390Z,4.03
2019-03-18T10:38:53.971Z,3.73
2019-03-18T10:41:26.432Z,3.57
2019-03-18T10:44:08.228Z,3.73
2019-03-18T10:46:40.717Z,3.33
2019-03-18T10:49:07.016Z,3.00
2019-03-18T10:52:00.322Z,3.37
2019-03-18T10:54:40.845Z,4.10
2019-03-18T10:57:13.003Z,3.60
2019-03-18T10:59:39.337Z,3.08
2019-03-18T11:02:36.882Z,3.55
2019-03-18T11:05:04.457Z,2.92
2019-03-18T11:07:30.765Z,3.08
2019-03-18T11:09:57.117Z,2.72
2019-03-18T11:12:33.030Z,3.80
2019-03-18T11:14:59.590Z,4.78
2019-03-18T11:17:44.571Z,3.80
2019-03-18T11:20:15.481Z,4.58
2019-03-18T11:22:41.996Z,3.80
2019-03-18T11:25:09.735Z,3.75
2019-03-18T11:27:36.365Z,4.28
2019-03-18T11:30:12.971Z,3.33
2019-03-18T11:32:42.495Z,3.22
2019-03-18T11:35:11.886Z,2.95
2019-03-18T11:37:56.895Z,2.92
2019-03-18T11:40:24.262Z,3.10
2019-03-18T11:43:02.107Z,3.50
2019-03-18T11:45:37.513Z,3.40
2019-03-18T11:48:06.540Z,3.60
2019-03-18T11:50:44.890Z,2.95
2019-03-18T11:53:17.473Z,2.75
2019-03-18T11:55:46.839Z,3.77
2019-03-18T11:58:16.317Z,3.05
2019-03-18T12:01:02.944Z,3.25
2019-03-18T12:03:29.276Z,3.22
2019-03-18T12:06:09.976Z,3.30
2019-03-18T12:08:40.536Z,3.05
2019-03-18T12:11:06.792Z,2.65
2019-03-18T12:14:01.356Z,1.80
2019-03-18T12:16:54.590Z,1.80
2019-03-18T12:19:23.321Z,1.17
2019-03-18T12:21:52.856Z,1.32
2019-03-18T12:24:32.323Z,2.00
2019-03-18T12:27:01.820Z,1.37
2019-03-18T12:29:34.022Z,1.65
2019-03-18T12:32:00.303Z,1.50
2019-03-18T12:34:28.657Z,1.60
2019-03-18T12:37:14.338Z,1.50
2019-03-18T12:39:59.231Z,1.72
2019-03-18T12:42:26.774Z,1.72
2019-03-18T12:44:56.170Z,1.95
2019-03-18T12:47:22.603Z,1.92
2019-03-18T12:49:49.125Z,1.37
2019-03-18T12:52:15.444Z,1.67
2019-03-18T12:54:47.848Z,1.70
2019-03-18T12:57:14.135Z,1.60
2019-03-18T12:59:43.577Z,1.80
2019-03-18T13:02:16.269Z,1.42
2019-03-18T13:04:43.024Z,1.72
2019-03-18T13:07:09.496Z,1.55
2019-03-18T13:09:35.907Z,1.57
2019-03-18T13:12:02.176Z,1.75
2019-03-18T13:14:28.722Z,2.10
2019-03-18T13:16:55.058Z,1.55
2019-03-18T13:19:21.389Z,1.65
2019-03-18T13:21:47.642Z,1.50
2019-03-18T13:24:20.107Z,1.17
2019-03-18T13:26:49.486Z,1.70
2019-03-18T13:29:38.709Z,1.90
2019-03-18T13:32:10.844Z,1.77
2019-03-18T13:34:43.220Z,1.47
2019-03-18T13:37:15.922Z,1.50
2019-03-18T13:39:53.583Z,1.85
2019-03-18T13:42:29.300Z,1.52
2019-03-18T13:44:58.847Z,1.47
2019-03-18T13:47:28.375Z,1.40
2019-03-18T13:49:54.778Z,1.30
2019-03-18T13:52:21.056Z,1.62
2019-03-18T13:54:49.423Z,1.50
2019-03-18T13:57:49.702Z,1.70
2019-03-18T14:00:30.941Z,1.42
2019-03-18T14:02:56.336Z,1.27
2019-03-18T14:05:35.849Z,1.17
2019-03-18T14:08:03.233Z,1.50
2019-03-18T14:10:42.659Z,1.17
2019-03-18T14:13:12.103Z,1.30
2019-03-18T14:15:53.700Z,1.27
2019-03-18T14:18:23.146Z,1.07
2019-03-18T14:20:49.384Z,1.25
2019-03-18T14:23:25.005Z,1.35
2019-03-18T14:25:54.515Z,1.20
2019-03-18T14:28:26.880Z,1.35
2019-03-18T14:31:11.448Z,1.20
2019-03-18T14:33:37.902Z,1.72
2019-03-18T14:36:04.287Z,1.07
2019-03-18T14:38:41.448Z,1.65
2019-03-18T14:41:10.797Z,1.30
2019-03-18T14:43:40.252Z,1.27
2019-03-18T14:46:12.809Z,1.50
2019-03-18T14:48:42.192Z,1.30
2019-03-18T14:51:19.543Z,1.05
2019-03-18T14:53:45.907Z,1.30
2019-03-18T14:56:15.442Z,1.85
2019-03-18T14:58:50.737Z,1.40
2019-03-18T15:01:20.109Z,1.40
2019-03-18T15:03:46.444Z,1.12
2019-03-18T15:06:22.224Z,1.20
2019-03-18T15:08:48.623Z,1.67
2019-03-18T15:11:15.005Z,1.67
2019-03-18T15:13:51.386Z,1.35
2019-03-18T15:16:17.513Z,1.20
2019-03-18T15:18:43.800Z,1.47
2019-03-18T15:21:58.042Z,1.05
2019-03-18T15:24:22.533Z,1.57
2019-03-18T15:26:54.771Z,1.35
2019-03-18T15:29:31.934Z,1.62
2019-03-18T15:31:58.173Z,1.10
2019-03-18T15:34:24.435Z,1.50
2019-03-18T15:36:50.735Z,1.35
2019-03-18T15:39:19.010Z,1.10
2019-03-18T15:41:45.387Z,1.40
2019-03-18T15:44:11.771Z,1.10
2019-03-18T15:46:40.097Z,1.32
2019-03-18T15:49:06.436Z,1.33
2019-03-18T15:51:35.853Z,1.40
2019-03-18T15:54:04.140Z,0.88
2019-03-18T15:56:33.597Z,1.07
2019-03-18T15:58:59.863Z,1.30
2019-03-18T16:01:26.135Z,1.07
2019-03-18T16:03:52.390Z,1.37
2019-03-18T16:06:20.881Z,1.27
2019-03-18T16:08:47.135Z,1.47
2019-03-18T16:11:13.428Z,1.15
2019-03-18T16:13:39.778Z,1.10
2019-03-18T16:16:06.132Z,1.63
2019-03-18T16:18:32.456Z,1.17
2019-03-18T16:20:58.721Z,1.10
2019-03-18T16:23:25.019Z,1.30
2019-03-18T16:25:51.420Z,1.40
2019-03-18T16:28:17.707Z,1.20
2019-03-18T16:30:44.113Z,1.40
2019-03-18T16:33:11.437Z,1.40
2019-03-18T16:35:37.724Z,1.10
2019-03-18T16:38:04.018Z,1.00
2019-03-18T16:40:34.740Z,1.57
2019-03-18T16:43:01.211Z,1.30
2019-03-18T16:45:42.942Z,1.33
2019-03-18T16:48:30.764Z,1.40
2019-03-18T16:51:00.276Z,1.53
2019-03-18T16:53:28.518Z,1.70
2019-03-18T16:56:00.731Z,1.77
2019-03-18T16:58:26.994Z,1.73
2019-03-18T17:00:56.420Z,3.00
2019-03-18T17:03:25.830Z,2.20
2019-03-18T17:05:54.183Z,1.50
2019-03-18T17:08:28.002Z,2.73
2019-03-18T17:11:01.191Z,1.60
2019-03-18T17:13:30.742Z,1.70
2019-03-18T17:16:34.070Z,1.40
2019-03-18T17:19:03.597Z,2.63
2019-03-18T17:21:35.924Z,1.60
2019-03-18T17:24:17.603Z,2.47
2019-03-18T17:26:47.436Z,2.00
2019-03-18T17:29:15.010Z,1.97
2019-03-18T17:32:03.982Z,2.13
2019-03-18T17:34:34.282Z,1.83
2019-03-18T17:37:09.923Z,2.37
2019-03-18T17:39:45.537Z,2.07
2019-03-18T17:42:17.844Z,2.47
2019-03-18T17:44:47.251Z,2.70
2019-03-18T17:47:16.854Z,2.07
2019-03-18T17:49:47.170Z,2.27
2019-03-18T17:52:13.559Z,2.20
2019-03-18T17:54:40.035Z,2.67
2019-03-18T17:57:15.852Z,2.20
2019-03-18T17:59:48.523Z,2.40
2019-03-18T18:02:17.976Z,2.30
2019-03-18T18:04:44.367Z,2.87
2019-03-18T18:07:41.608Z,2.70
2019-03-18T18:10:21.126Z,2.50
2019-03-18T18:13:20.201Z,2.00
2019-03-18T18:15:46.578Z,2.77
2019-03-18T18:18:12.999Z,2.50
2019-03-18T18:20:40.859Z,2.60
2019-03-18T18:23:14.443Z,2.80
2019-03-18T18:25:35.646Z,2.53
2019-03-18T18:28:05.110Z,2.53
2019-03-18T18:30:32.459Z,2.73
2019-03-18T18:32:58.790Z,2.50
2019-03-18T18:35:27.161Z,2.70
2019-03-18T18:37:53.433Z,2.37
2019-03-18T18:40:25.495Z,2.63
2019-03-18T18:42:51.830Z,2.70
2019-03-18T18:45:18.192Z,2.60
2019-03-18T18:47:44.542Z,2.70
2019-03-18T18:50:11.452Z,2.97
2019-03-18T18:52:37.730Z,3.30
2019-03-18T18:55:06.216Z,2.53
2019-03-18T18:57:32.757Z,3.03
2019-03-18T19:00:09.981Z,2.90
2019-03-18T19:02:36.243Z,2.93
2019-03-18T19:05:08.989Z,3.03
2019-03-18T19:07:35.276Z,3.10
2019-03-18T19:10:09.365Z,3.27
2019-03-18T19:12:35.771Z,3.37
2019-03-18T19:15:02.057Z,5.10
2019-03-18T19:17:28.338Z,8.40
2019-03-18T19:19:54.633Z,10.43
2019-03-18T19:22:20.932Z,12.27
2019-03-18T19:24:47.309Z,12.83
2019-03-18T19:27:13.604Z,12.77
2019-03-18T19:29:39.913Z,14.03
2019-03-18T19:32:06.281Z,13.03
2019-03-18T19:34:32.657Z,13.57
2019-03-18T19:36:59.073Z,12.77
2019-03-18T19:39:25.468Z,14.90
2019-03-18T19:41:54.734Z,13.27
2019-03-18T19:44:21.167Z,12.93
2019-03-18T19:46:47.588Z,13.63
2019-03-18T19:49:18.635Z,12.43
2019-03-18T19:51:52.290Z,16.87
2019-03-18T19:54:18.685Z,18.63
2019-03-18T19:56:48.027Z,16.37
2019-03-18T19:59:16.622Z,17.23
2019-03-18T20:01:42.880Z,15.23
2019-03-18T20:04:09.155Z,14.43
2019-03-18T20:06:35.433Z,14.27
2019-03-18T20:09:01.733Z,16.27
2019-03-18T20:11:28.014Z,15.43
2019-03-18T20:13:54.396Z,16.23
2019-03-18T20:16:20.645Z,15.63
2019-03-18T20:18:46.918Z,15.30
2019-03-18T20:21:13.211Z,16.07
2019-03-18T20:23:40.549Z,17.57
2019-03-18T20:26:06.871Z,15.60
2019-03-18T20:28:33.176Z,16.17
2019-03-18T20:30:59.433Z,15.47
2019-03-18T20:33:27.734Z,21.83
2019-03-18T20:35:53.998Z,22.57
2019-03-18T20:38:20.322Z,17.43
2019-03-18T20:40:46.719Z,18.60
2019-03-18T20:43:12.997Z,18.50
2019-03-18T20:45:39.482Z,17.07
2019-03-18T20:48:12.170Z,18.10
2019-03-18T20:50:38.461Z,18.50
2019-03-18T20:53:07.945Z,17.63
2019-03-18T20:55:40.363Z,18.40
2019-03-18T20:58:06.633Z,16.17
2019-03-18T21:00:35.054Z,16.23
2019-03-18T21:03:01.443Z,19.70
2019-03-18T21:05:27.721Z,17.23
2019-03-18T21:07:54.001Z,18.50
2019-03-18T21:10:23.414Z,18.23
2019-03-18T21:12:49.713Z,21.27
2019-03-18T21:15:22.057Z,19.10
2019-03-18T21:17:56.587Z,19.87
2019-03-18T21:20:41.561Z,22.90
2019-03-18T21:23:16.857Z,21.50
2019-03-18T21:25:43.121Z,18.93
2019-03-18T21:28:09.556Z,18.10
2019-03-18T21:30:36.001Z,19.97
2019-03-18T21:33:02.293Z,20.53
2019-03-18T21:35:28.640Z,19.57
2019-03-18T21:37:54.919Z,18.73
2019-03-18T21:40:21.216Z,19.57
2019-03-18T21:42:47.464Z,21.97
2019-03-18T21:45:16.659Z,33.93
2019-03-18T21:47:42.984Z,29.00
2019-03-18T21:50:10.256Z,24.90
2019-03-18T21:52:36.534Z,24.90
2019-03-18T21:55:03.628Z,23.20
2019-03-18T21:57:29.899Z,26.30
2019-03-18T21:59:57.562Z,24.27
2019-03-18T22:02:24.139Z,25.80
2019-03-18T22:04:50.417Z,28.73
2019-03-18T22:07:16.748Z,28.37
2019-03-18T22:09:43.005Z,25.83
2019-03-18T22:12:09.274Z,25.80
2019-03-18T22:14:38.729Z,25.83
2019-03-18T22:17:05.002Z,24.73
2019-03-18T22:19:31.279Z,22.00
2019-03-18T22:21:57.656Z,23.00
2019-03-18T22:24:23.937Z,20.63
2019-03-18T22:26:53.269Z,22.17
2019-03-18T22:29:19.574Z,20.40
2019-03-18T22:31:45.822Z,20.67
2019-03-18T22:34:12.086Z,19.27
2019-03-18T22:36:38.377Z,19.37
2019-03-18T22:39:06.383Z,20.23
2019-03-18T22:41:32.664Z,18.53
2019-03-18T22:43:58.930Z,16.90
2019-03-18T22:46:25.253Z,16.03
2019-03-18T22:48:51.544Z,14.43
2019-03-18T22:51:17.825Z,14.10
2019-03-18T22:53:44.154Z,13.37
2019-03-18T22:56:10.432Z,14.20
2019-03-18T22:58:36.709Z,13.17
2019-03-18T23:01:13.580Z,13.40
2019-03-18T23:03:39.867Z,13.00
2019-03-18T23:06:06.125Z,13.23
2019-03-18T23:08:32.413Z,11.63
2019-03-18T23:10:58.743Z,12.53
2019-03-18T23:13:25.007Z,11.80
2019-03-18T23:15:52.293Z,13.00
2019-03-18T23:18:18.605Z,13.30
2019-03-18T23:20:44.890Z,12.33
2019-03-18T23:23:11.170Z,12.03
2019-03-18T23:25:37.459Z,12.00
2019-03-18T23:28:03.731Z,11.67
2019-03-18T23:30:29.994Z,12.13
2019-03-18T23:32:56.309Z,12.13
2019-03-18T23:35:22.589Z,11.17
2019-03-18T23:37:48.861Z,10.47
2019-03-18T23:40:15.155Z,10.47
2019-03-18T23:42:41.430Z,11.80
2019-03-18T23:45:08.343Z,11.67
2019-03-18T23:47:34.665Z,11.63
2019-03-18T23:50:00.947Z,11.40
2019-03-18T23:52:27.253Z,12.40
2019-03-18T23:54:53.542Z,11.33
2019-03-18T23:57:19.842Z,12.20
2019-03-18T23:59:46.142Z,11.00
